sensor_id;sensor_type;location;lat;lon;timestamp;pressure;altitude;pressure_sealevel;temperature;humidity
17593;BME280;8915;51.760;14.300;2024-03-06T00:02:12;101364.72;;;0.30;100.00
17593;BME280;8915;51.760;14.300;2024-03-06T00:04:39;101365.00;;;0.28;100.00
17593;BME280;8915;51.760;14.300;2024-03-06T00:07:05;101369.63;;;0.26;100.00
17593;BME280;8915;51.760;14.300;2024-03-06T00:09:32;101370.09;;;0.23;100.00
17593;BME280;8915;51.760;14.300;2024-03-06T00:11:58;101363.81;;;0.19;100.00
17593;BME280;8915;51.760;14.300;2024-03-06T00:14:25;101368.44;;;0.17;100.00
17593;BME280;8915;51.760;14.300;2024-03-06T00:16:52;101371.53;;;0.14;100.00
17593;BME280;8915;51.760;14.300;2024-03-06T00:19:21;101376.63;;;0.09;100.00
17593;BME280;8915;51.760;14.300;2024-03-06T00:21:48;101376.06;;;0.07;100.00
17593;BME280;8915;51.760;14.300;2024-03-06T00:24:15;101379.38;;;0.03;100.00
17593;BME280;8915;51.760;14.300;2024-03-06T00:26:42;101381.38;;;-0.04;100.00
17593;BME280;8915;51.760;14.300;2024-03-06T00:29:09;101388.59;;;-0.06;100.00
17593;BME280;8915;51.760;14.300;2024-03-06T00:31:36;101384.66;;;-0.09;100.00
17593;BME280;8915;51.760;14.300;2024-03-06T00:34:04;101394.72;;;-0.12;100.00
17593;BME280;8915;51.760;14.300;2024-03-06T00:36:31;101396.53;;;-0.13;100.00
17593;BME280;8915;51.760;14.300;2024-03-06T00:38:57;101396.53;;;-0.13;100.00
17593;BME280;8915;51.760;14.300;2024-03-06T00:41:24;101401.16;;;-0.15;100.00
17593;BME280;8915;51.760;14.300;2024-03-06T00:43:50;101402.66;;;-0.19;100.00
17593;BME280;8915;51.760;14.300;2024-03-06T00:46:17;101406.50;;;-0.21;100.00
17593;BME280;8915;51.760;14.300;2024-03-06T00:48:43;101408.31;;;-0.22;100.00
17593;BME280;8915;51.760;14.300;2024-03-06T00:51:11;101402.56;;;-0.24;100.00
17593;BME280;8915;51.760;14.300;2024-03-06T00:53:37;101409.00;;;-0.26;100.00
17593;BME280;8915;51.760;14.300;2024-03-06T00:56:04;101412.84;;;-0.29;100.00
17593;BME280;8915;51.760;14.300;2024-03-06T00:58:31;101418.00;;;-0.33;100.00
17593;BME280;8915;51.760;14.300;2024-03-06T01:00:58;101419.56;;;-0.32;100.00
17593;BME280;8915;51.760;14.300;2024-03-06T01:03:24;101422.38;;;-0.34;100.00
17593;BME280;8915;51.760;14.300;2024-03-06T01:05:52;101419.25;;;-0.36;100.00
17593;BME280;8915;51.760;14.300;2024-03-06T01:08:21;101421.25;;;-0.38;100.00
17593;BME280;8915;51.760;14.300;2024-03-06T01:10:49;101423.84;;;-0.38;100.00
17593;BME280;8915;51.760;14.300;2024-03-06T01:13:19;101432.34;;;-0.43;100.00
17593;BME280;8915;51.760;14.300;2024-03-06T01:15:45;101431.47;;;-0.48;100.00
17593;BME280;8915;51.760;14.300;2024-03-06T01:18:12;101423.59;;;-0.53;100.00
17593;BME280;8915;51.760;14.300;2024-03-06T01:20:38;101431.38;;;-0.53;100.00
17593;BME280;8915;51.760;14.300;2024-03-06T01:23:05;101432.06;;;-0.57;100.00
17593;BME280;8915;51.760;14.300;2024-03-06T01:25:33;101434.88;;;-0.59;100.00
17593;BME280;8915;51.760;14.300;2024-03-06T01:28:00;101443.69;;;-0.60;100.00
17593;BME280;8915;51.760;14.300;2024-03-06T01:30:26;101446.50;;;-0.62;100.00
17593;BME280;8915;51.760;14.300;2024-03-06T01:32:52;101447.22;;;-0.66;100.00
17593;BME280;8915;51.760;14.300;2024-03-06T01:35:19;101445.06;;;-0.69;100.00
17593;BME280;8915;51.760;14.300;2024-03-06T01:37:45;101447.13;;;-0.71;100.00
17593;BME280;8915;51.760;14.300;2024-03-06T01:40:12;101455.91;;;-0.72;100.00
17593;BME280;8915;51.760;14.300;2024-03-06T01:42:39;101451.97;;;-0.74;100.00
17593;BME280;8915;51.760;14.300;2024-03-06T01:45:07;101456.38;;;-0.75;100.00
17593;BME280;8915;51.760;14.300;2024-03-06T01:47:34;101457.16;;;-0.74;100.00
17593;BME280;8915;51.760;14.300;2024-03-06T01:50:01;101464.94;;;-0.74;100.00
17593;BME280;8915;51.760;14.300;2024-03-06T01:52:28;101458.63;;;-0.78;100.00
17593;BME280;8915;51.760;14.300;2024-03-06T01:54:54;101463.25;;;-0.81;100.00
17593;BME280;8915;51.760;14.300;2024-03-06T01:57:24;101466.63;;;-0.80;100.00
17593;BME280;8915;51.760;14.300;2024-03-06T01:59:51;101463.94;;;-0.85;100.00
17593;BME280;8915;51.760;14.300;2024-03-06T02:02:18;101463.06;;;-0.90;100.00
17593;BME280;8915;51.760;14.300;2024-03-06T02:04:45;101456.84;;;-0.89;100.00
17593;BME280;8915;51.760;14.300;2024-03-06T02:07:14;101469.25;;;-0.92;100.00
17593;BME280;8915;51.760;14.300;2024-03-06T02:09:42;101464.84;;;-0.91;100.00
17593;BME280;8915;51.760;14.300;2024-03-06T02:12:12;101463.19;;;-0.97;100.00
17593;BME280;8915;51.760;14.300;2024-03-06T02:14:39;101469.59;;;-0.99;100.00
17593;BME280;8915;51.760;14.300;2024-03-06T02:17:07;101462.28;;;-1.02;100.00
17593;BME280;8915;51.760;14.300;2024-03-06T02:19:38;101462.84;;;-1.00;100.00
17593;BME280;8915;51.760;14.300;2024-03-06T02:22:06;101462.59;;;-0.99;100.00
17593;BME280;8915;51.760;14.300;2024-03-06T02:24:32;101463.19;;;-0.97;100.00
17593;BME280;8915;51.760;14.300;2024-03-06T02:26:59;101461.59;;;-0.98;100.00
17593;BME280;8915;51.760;14.300;2024-03-06T02:29:25;101458.00;;;-0.97;100.00
17593;BME280;8915;51.760;14.300;2024-03-06T02:31:51;101455.84;;;-1.00;100.00
17593;BME280;8915;51.760;14.300;2024-03-06T02:34:18;101467.94;;;-1.05;100.00
17593;BME280;8915;51.760;14.300;2024-03-06T02:36:44;101469.38;;;-1.09;100.00
17593;BME280;8915;51.760;14.300;2024-03-06T02:39:12;101462.06;;;-1.13;100.00
17593;BME280;8915;51.760;14.300;2024-03-06T02:41:39;101470.41;;;-1.10;100.00
17593;BME280;8915;51.760;14.300;2024-03-06T02:44:06;101467.47;;;-1.14;100.00
17593;BME280;8915;51.760;14.300;2024-03-06T02:46:32;101468.47;;;-1.15;100.00
17593;BME280;8915;51.760;14.300;2024-03-06T02:49:01;101472.63;;;-1.14;100.00
17593;BME280;8915;51.760;14.300;2024-03-06T02:51:27;101471.28;;;-1.17;100.00
17593;BME280;8915;51.760;14.300;2024-03-06T02:53:55;101470.75;;;-1.18;100.00
17593;BME280;8915;51.760;14.300;2024-03-06T02:56:23;101462.09;;;-1.24;100.00
17593;BME280;8915;51.760;14.300;2024-03-06T02:58:49;101467.50;;;-1.25;100.00
17593;BME280;8915;51.760;14.300;2024-03-06T03:01:15;101467.16;;;-1.29;100.00
17593;BME280;8915;51.760;14.300;2024-03-06T03:03:42;101464.31;;;-1.27;100.00
17593;BME280;8915;51.760;14.300;2024-03-06T03:06:09;101467.50;;;-1.25;100.00
17593;BME280;8915;51.760;14.300;2024-03-06T03:08:36;101467.94;;;-1.28;100.00
17593;BME280;8915;51.760;14.300;2024-03-06T03:11:03;101478.06;;;-1.27;100.00
17593;BME280;8915;51.760;14.300;2024-03-06T03:13:31;101486.28;;;-1.30;100.00
17593;BME280;8915;51.760;14.300;2024-03-06T03:15:57;101486.88;;;-1.28;100.00
17593;BME280;8915;51.760;14.300;2024-03-06T03:18:23;101482.81;;;-1.24;100.00
17593;BME280;8915;51.760;14.300;2024-03-06T03:20:50;101482.81;;;-1.24;100.00
17593;BME280;8915;51.760;14.300;2024-03-06T03:23:16;101492.94;;;-1.23;100.00
17593;BME280;8915;51.760;14.300;2024-03-06T03:25:47;101489.34;;;-1.21;100.00
17593;BME280;8915;51.760;14.300;2024-03-06T03:28:13;101486.75;;;-1.21;100.00
17593;BME280;8915;51.760;14.300;2024-03-06T03:30:42;101490.00;;;-1.26;100.00
17593;BME280;8915;51.760;14.300;2024-03-06T03:33:09;101488.22;;;-1.25;100.00
17593;BME280;8915;51.760;14.300;2024-03-06T03:35:35;101489.13;;;-1.31;100.00
17593;BME280;8915;51.760;14.300;2024-03-06T03:38:01;101493.06;;;-1.29;100.00
17593;BME280;8915;51.760;14.300;2024-03-06T03:40:28;101493.84;;;-1.28;100.00
17593;BME280;8915;51.760;14.300;2024-03-06T03:42:55;101492.03;;;-1.28;100.00
17593;BME280;8915;51.760;14.300;2024-03-06T03:45:21;101485.41;;;-1.24;100.00
17593;BME280;8915;51.760;14.300;2024-03-06T03:47:49;101488.00;;;-1.24;100.00
17593;BME280;8915;51.760;14.300;2024-03-06T03:50:15;101492.81;;;-1.27;100.00
17593;BME280;8915;51.760;14.300;2024-03-06T03:52:41;101496.19;;;-1.27;100.00
17593;BME280;8915;51.760;14.300;2024-03-06T03:55:09;101487.63;;;-1.27;100.00
17593;BME280;8915;51.760;14.300;2024-03-06T03:57:36;101493.84;;;-1.28;100.00
17593;BME280;8915;51.760;14.300;2024-03-06T04:00:02;101495.06;;;-1.31;100.00
17593;BME280;8915;51.760;14.300;2024-03-06T04:02:37;101500.59;;;-1.27;100.00
17593;BME280;8915;51.760;14.300;2024-03-06T04:05:06;101492.03;;;-1.28;100.00
17593;BME280;8915;51.760;14.300;2024-03-06T04:07:32;101490.47;;;-1.29;100.00
17593;BME280;8915;51.760;14.300;2024-03-06T04:09:59;101495.66;;;-1.29;100.00
17593;BME280;8915;51.760;14.300;2024-03-06T04:12:25;101499.47;;;-1.31;100.00
17593;BME280;8915;51.760;14.300;2024-03-06T04:14:52;101501.28;;;-1.32;100.00
17593;BME280;8915;51.760;14.300;2024-03-06T04:17:18;101502.28;;;-1.33;100.00
17593;BME280;8915;51.760;14.300;2024-03-06T04:19:44;101507.47;;;-1.33;100.00
17593;BME280;8915;51.760;14.300;2024-03-06T04:22:14;101516.25;;;-1.34;100.00
17593;BME280;8915;51.760;14.300;2024-03-06T04:24:41;101512.06;;;-1.35;100.00
17593;BME280;8915;51.760;14.300;2024-03-06T04:27:07;101511.28;;;-1.35;100.00
17593;BME280;8915;51.760;14.300;2024-03-06T04:29:36;101521.88;;;-1.37;100.00
17593;BME280;8915;51.760;14.300;2024-03-06T04:32:06;101520.75;;;-1.41;100.00
17593;BME280;8915;51.760;14.300;2024-03-06T04:34:32;101508.69;;;-1.47;100.00
17593;BME280;8915;51.760;14.300;2024-03-06T04:36:59;101509.72;;;-1.48;100.00
17593;BME280;8915;51.760;14.300;2024-03-06T04:39:26;101508.47;;;-1.45;100.00
17593;BME280;8915;51.760;14.300;2024-03-06T04:41:53;101526.25;;;-1.49;100.00
17593;BME280;8915;51.760;14.300;2024-03-06T04:44:19;101521.53;;;-1.52;100.00
17593;BME280;8915;51.760;14.300;2024-03-06T04:46:45;101523.88;;;-1.50;100.00
17593;BME280;8915;51.760;14.300;2024-03-06T04:49:12;101523.09;;;-1.51;100.00
17593;BME280;8915;51.760;14.300;2024-03-06T04:51:38;101530.53;;;-1.54;100.00
17593;BME280;8915;51.760;14.300;2024-03-06T04:54:04;101535.25;;;-1.51;100.00
17593;BME280;8915;51.760;14.300;2024-03-06T04:56:32;101532.09;;;-1.53;100.00
17593;BME280;8915;51.760;14.300;2024-03-06T04:58:59;101539.09;;;-1.54;100.00
17593;BME280;8915;51.760;14.300;2024-03-06T05:01:37;101542.44;;;-1.53;100.00
17593;BME280;8915;51.760;14.300;2024-03-06T05:04:03;101538.88;;;-1.52;100.00
17593;BME280;8915;51.760;14.300;2024-03-06T05:06:30;101546.72;;;-1.48;100.00
17593;BME280;8915;51.760;14.300;2024-03-06T05:08:56;101550.47;;;-1.43;100.00
17593;BME280;8915;51.760;14.300;2024-03-06T05:11:22;101547.78;;;-1.37;100.00
17593;BME280;8915;51.760;14.300;2024-03-06T05:13:50;101550.72;;;-1.33;100.00
17593;BME280;8915;51.760;14.300;2024-03-06T05:16:16;101560.63;;;-1.30;100.00
17593;BME280;8915;51.760;14.300;2024-03-06T05:18:43;101562.75;;;-1.27;100.00
17593;BME280;8915;51.760;14.300;2024-03-06T05:21:09;101565.72;;;-1.24;100.00
17593;BME280;8915;51.760;14.300;2024-03-06T05:23:37;101568.88;;;-1.22;100.00
17593;BME280;8915;51.760;14.300;2024-03-06T05:26:03;101580.38;;;-1.18;100.00
17593;BME280;8915;51.760;14.300;2024-03-06T05:28:29;101576.06;;;-1.13;100.00
17593;BME280;8915;51.760;14.300;2024-03-06T05:30:57;101581.38;;;-1.08;100.00
17593;BME280;8915;51.760;14.300;2024-03-06T05:33:35;101588.25;;;-1.02;100.00
17593;BME280;8915;51.760;14.300;2024-03-06T05:36:01;101592.78;;;-0.97;100.00
17593;BME280;8915;51.760;14.300;2024-03-06T05:38:27;101594.69;;;-0.93;100.00
17593;BME280;8915;51.760;14.300;2024-03-06T05:40:54;101597.84;;;-0.90;100.00
17593;BME280;8915;51.760;14.300;2024-03-06T05:43:20;101592.00;;;-0.86;100.00
17593;BME280;8915;51.760;14.300;2024-03-06T05:45:46;101591.53;;;-0.83;100.00
17593;BME280;8915;51.760;14.300;2024-03-06T05:48:14;101602.81;;;-0.77;100.00
17593;BME280;8915;51.760;14.300;2024-03-06T05:50:40;101608.31;;;-0.74;100.00
17593;BME280;8915;51.760;14.300;2024-03-06T05:53:07;101617.22;;;-0.70;100.00
17593;BME280;8915;51.760;14.300;2024-03-06T05:55:33;101614.75;;;-0.65;100.00
17593;BME280;8915;51.760;14.300;2024-03-06T05:57:59;101623.09;;;-0.63;100.00
17593;BME280;8915;51.760;14.300;2024-03-06T06:00:26;101618.22;;;-0.60;100.00
17593;BME280;8915;51.760;14.300;2024-03-06T06:02:52;101626.91;;;-0.54;100.00
17593;BME280;8915;51.760;14.300;2024-03-06T06:05:20;101622.88;;;-0.50;100.00
17593;BME280;8915;51.760;14.300;2024-03-06T06:07:48;101626.59;;;-0.46;100.00
17593;BME280;8915;51.760;14.300;2024-03-06T06:10:14;101625.69;;;-0.40;100.00
17593;BME280;8915;51.760;14.300;2024-03-06T06:12:40;101629.41;;;-0.36;100.00
17593;BME280;8915;51.760;14.300;2024-03-06T06:15:08;101638.06;;;-0.31;100.00
17593;BME280;8915;51.760;14.300;2024-03-06T06:17:35;101639.75;;;-0.25;100.00
17593;BME280;8915;51.760;14.300;2024-03-06T06:20:03;101646.63;;;-0.19;100.00
17593;BME280;8915;51.760;14.300;2024-03-06T06:22:31;101650.91;;;-0.13;100.00
17593;BME280;8915;51.760;14.300;2024-03-06T06:24:57;101648.41;;;-0.08;100.00
17593;BME280;8915;51.760;14.300;2024-03-06T06:27:24;101657.09;;;-0.02;100.00
17593;BME280;8915;51.760;14.300;2024-03-06T06:29:50;101655.38;;;0.03;100.00
17593;BME280;8915;51.760;14.300;2024-03-06T06:32:18;101657.84;;;0.10;100.00
17593;BME280;8915;51.760;14.300;2024-03-06T06:34:44;101660.53;;;0.15;100.00
17593;BME280;8915;51.760;14.300;2024-03-06T06:37:12;101664.81;;;0.21;100.00
17593;BME280;8915;51.760;14.300;2024-03-06T06:39:41;101662.31;;;0.26;100.00
17593;BME280;8915;51.760;14.300;2024-03-06T06:42:07;101661.41;;;0.32;100.00
17593;BME280;8915;51.760;14.300;2024-03-06T06:44:34;101661.50;;;0.37;100.00
17593;BME280;8915;51.760;14.300;2024-03-06T06:47:00;101660.78;;;0.41;100.00
17593;BME280;8915;51.760;14.300;2024-03-06T06:49:28;101661.69;;;0.47;100.00
17593;BME280;8915;51.760;14.300;2024-03-06T06:51:55;101670.13;;;0.54;100.00
17593;BME280;8915;51.760;14.300;2024-03-06T06:54:21;101678.00;;;0.59;100.00
17593;BME280;8915;51.760;14.300;2024-03-06T06:56:49;101673.91;;;0.63;100.00
17593;BME280;8915;51.760;14.300;2024-03-06T06:59:15;101675.59;;;0.69;100.00
17593;BME280;8915;51.760;14.300;2024-03-06T07:01:42;101679.03;;;0.74;100.00
17593;BME280;8915;51.760;14.300;2024-03-06T07:04:08;101685.13;;;0.80;100.00
17593;BME280;8915;51.760;14.300;2024-03-06T07:06:35;101681.06;;;0.84;100.00
17593;BME280;8915;51.760;14.300;2024-03-06T07:09:01;101682.94;;;0.88;100.00
17593;BME280;8915;51.760;14.300;2024-03-06T07:11:30;101693.66;;;0.92;100.00
17593;BME280;8915;51.760;14.300;2024-03-06T07:13:57;101695.56;;;0.96;100.00
17593;BME280;8915;51.760;14.300;2024-03-06T07:16:24;101695.66;;;1.01;100.00
17593;BME280;8915;51.760;14.300;2024-03-06T07:18:50;101696.50;;;1.07;100.00
17593;BME280;8915;51.760;14.300;2024-03-06T07:21:16;101698.97;;;1.13;100.00
17593;BME280;8915;51.760;14.300;2024-03-06T07:23:43;101695.63;;;1.18;100.00
17593;BME280;8915;51.760;14.300;2024-03-06T07:26:10;101697.78;;;1.21;100.00
17593;BME280;8915;51.760;14.300;2024-03-06T07:28:36;101691.84;;;1.25;100.00
17593;BME280;8915;51.760;14.300;2024-03-06T07:31:04;101696.59;;;1.28;100.00
17593;BME280;8915;51.760;14.300;2024-03-06T07:33:31;101706.50;;;1.31;100.00
17593;BME280;8915;51.760;14.300;2024-03-06T07:35:59;101699.28;;;1.33;100.00
17593;BME280;8915;51.760;14.300;2024-03-06T07:38:28;101707.41;;;1.37;100.00
17593;BME280;8915;51.760;14.300;2024-03-06T07:40:57;101699.13;;;1.40;100.00
17593;BME280;8915;51.760;14.300;2024-03-06T07:43:23;101701.00;;;1.44;100.00
17593;BME280;8915;51.760;14.300;2024-03-06T07:45:49;101704.50;;;1.50;100.00
17593;BME280;8915;51.760;14.300;2024-03-06T07:48:18;101701.94;;;1.55;100.00
17593;BME280;8915;51.760;14.300;2024-03-06T07:50:45;101707.47;;;1.58;100.00
17593;BME280;8915;51.760;14.300;2024-03-06T07:53:11;101707.28;;;1.65;100.00
17593;BME280;8915;51.760;14.300;2024-03-06T07:55:37;101718.56;;;1.70;100.00
17593;BME280;8915;51.760;14.300;2024-03-06T07:58:04;101718.41;;;1.77;100.00
17593;BME280;8915;51.760;14.300;2024-03-06T08:00:30;101727.88;;;1.83;100.00
17593;BME280;8915;51.760;14.300;2024-03-06T08:02:57;101725.03;;;1.84;100.00
17593;BME280;8915;51.760;14.300;2024-03-06T08:05:27;101733.44;;;1.91;100.00
17593;BME280;8915;51.760;14.300;2024-03-06T08:07:54;101724.91;;;1.96;100.00
17593;BME280;8915;51.760;14.300;2024-03-06T08:10:20;101729.94;;;2.02;100.00
17593;BME280;8915;51.760;14.300;2024-03-06T08:12:48;101728.19;;;2.08;100.00
17593;BME280;8915;51.760;14.300;2024-03-06T08:15:15;101725.16;;;2.16;100.00
17593;BME280;8915;51.760;14.300;2024-03-06T08:17:42;101733.59;;;2.23;100.00
17593;BME280;8915;51.760;14.300;2024-03-06T08:20:10;101732.88;;;2.27;100.00
17593;BME280;8915;51.760;14.300;2024-03-06T08:22:39;101738.69;;;2.34;100.00
17593;BME280;8915;51.760;14.300;2024-03-06T08:25:07;101746.09;;;2.42;100.00
17593;BME280;8915;51.760;14.300;2024-03-06T08:27:34;101753.97;;;2.47;100.00
17593;BME280;8915;51.760;14.300;2024-03-06T08:30:01;101751.41;;;2.52;100.00
17593;BME280;8915;51.760;14.300;2024-03-06T08:32:30;101745.00;;;2.60;100.00
17593;BME280;8915;51.760;14.300;2024-03-06T08:34:56;101755.72;;;2.63;100.00
17593;BME280;8915;51.760;14.300;2024-03-06T08:37:23;101754.72;;;2.69;100.00
17593;BME280;8915;51.760;14.300;2024-03-06T08:39:50;101756.59;;;2.74;100.00
17593;BME280;8915;51.760;14.300;2024-03-06T08:42:17;101751.75;;;2.82;100.00
17593;BME280;8915;51.760;14.300;2024-03-06T08:44:44;101751.53;;;2.89;100.00
17593;BME280;8915;51.760;14.300;2024-03-06T08:47:11;101759.97;;;2.96;100.00
17593;BME280;8915;51.760;14.300;2024-03-06T08:49:38;101763.66;;;3.00;100.00
17593;BME280;8915;51.760;14.300;2024-03-06T08:52:06;101756.38;;;3.02;100.00
17593;BME280;8915;51.760;14.300;2024-03-06T08:54:33;101771.00;;;3.03;100.00
17593;BME280;8915;51.760;14.300;2024-03-06T08:57:01;101773.13;;;3.06;100.00
17593;BME280;8915;51.760;14.300;2024-03-06T08:59:28;101781.22;;;3.09;100.00
17593;BME280;8915;51.760;14.300;2024-03-06T09:01:54;101789.59;;;3.11;100.00
17593;BME280;8915;51.760;14.300;2024-03-06T09:04:22;101782.31;;;3.13;100.00
17593;BME280;8915;51.760;14.300;2024-03-06T09:06:48;101788.38;;;3.19;100.00
17593;BME280;8915;51.760;14.300;2024-03-06T09:09:15;101793.34;;;3.20;100.00
17593;BME280;8915;51.760;14.300;2024-03-06T09:11:41;101791.03;;;3.24;100.00
17593;BME280;8915;51.760;14.300;2024-03-06T09:14:09;101788.47;;;3.29;100.00
17593;BME280;8915;51.760;14.300;2024-03-06T09:16:35;101801.28;;;3.30;100.00
17593;BME280;8915;51.760;14.300;2024-03-06T09:19:02;101791.41;;;3.37;100.00
17593;BME280;8915;51.760;14.300;2024-03-06T09:21:28;101799.84;;;3.44;100.00
17593;BME280;8915;51.760;14.300;2024-03-06T09:23:55;101809.00;;;3.47;100.00
17593;BME280;8915;51.760;14.300;2024-03-06T09:26:21;101805.38;;;3.53;100.00
17593;BME280;8915;51.760;14.300;2024-03-06T09:28:47;101813.25;;;3.58;100.00
17593;BME280;8915;51.760;14.300;2024-03-06T09:31:16;101813.78;;;3.60;100.00
17593;BME280;8915;51.760;14.300;2024-03-06T09:33:42;101815.63;;;3.59;100.00
17593;BME280;8915;51.760;14.300;2024-03-06T09:36:10;101825.81;;;3.61;100.00
17593;BME280;8915;51.760;14.300;2024-03-06T09:38:39;101822.44;;;3.60;100.00
17593;BME280;8915;51.760;14.300;2024-03-06T09:41:05;101827.66;;;3.60;100.00
17593;BME280;8915;51.760;14.300;2024-03-06T09:43:32;101827.94;;;3.64;100.00
17593;BME280;8915;51.760;14.300;2024-03-06T09:45:58;101828.22;;;3.67;100.00
17593;BME280;8915;51.760;14.300;2024-03-06T09:48:29;101832.16;;;3.70;100.00
17593;BME280;8915;51.760;14.300;2024-03-06T09:51:00;101820.19;;;3.74;100.00
17593;BME280;8915;51.760;14.300;2024-03-06T09:53:27;101827.78;;;3.75;100.00
17593;BME280;8915;51.760;14.300;2024-03-06T09:55:57;101837.13;;;3.71;100.00
17593;BME280;8915;51.760;14.300;2024-03-06T09:58:24;101822.03;;;3.78;100.00
17593;BME280;8915;51.760;14.300;2024-03-06T10:00:51;101832.00;;;3.81;100.00
17593;BME280;8915;51.760;14.300;2024-03-06T10:03:18;101826.25;;;3.84;100.00
17593;BME280;8915;51.760;14.300;2024-03-06T10:05:47;101825.75;;;3.87;100.00
17593;BME280;8915;51.760;14.300;2024-03-06T10:08:14;101827.63;;;3.92;100.00
17593;BME280;8915;51.760;14.300;2024-03-06T10:10:41;101827.16;;;4.00;100.00
17593;BME280;8915;51.760;14.300;2024-03-06T10:13:08;101832.69;;;4.08;100.00
17593;BME280;8915;51.760;14.300;2024-03-06T10:15:34;101828.81;;;4.16;100.00
17593;BME280;8915;51.760;14.300;2024-03-06T10:18:12;101829.66;;;4.26;100.00
17593;BME280;8915;51.760;14.300;2024-03-06T10:20:39;101832.09;;;4.38;100.00
17593;BME280;8915;51.760;14.300;2024-03-06T10:23:09;101837.13;;;4.49;100.00
17593;BME280;8915;51.760;14.300;2024-03-06T10:25:36;101839.00;;;4.59;100.00
17593;BME280;8915;51.760;14.300;2024-03-06T10:28:07;101827.25;;;4.66;100.00
17593;BME280;8915;51.760;14.300;2024-03-06T10:30:35;101832.03;;;4.79;100.00
17593;BME280;8915;51.760;14.300;2024-03-06T10:33:02;101833.34;;;4.87;100.00
17593;BME280;8915;51.760;14.300;2024-03-06T10:35:29;101840.19;;;4.93;100.00
17593;BME280;8915;51.760;14.300;2024-03-06T10:37:56;101832.09;;;5.04;100.00
17593;BME280;8915;51.760;14.300;2024-03-06T10:40:25;101841.56;;;5.15;100.00
17593;BME280;8915;51.760;14.300;2024-03-06T10:42:54;101837.66;;;5.28;100.00
17593;BME280;8915;51.760;14.300;2024-03-06T10:45:23;101842.63;;;5.39;100.00
17593;BME280;8915;51.760;14.300;2024-03-06T10:47:54;101840.03;;;5.49;100.00
17593;BME280;8915;51.760;14.300;2024-03-06T10:50:21;101841.59;;;5.50;100.00
17593;BME280;8915;51.760;14.300;2024-03-06T10:52:49;101841.34;;;5.57;100.00
17593;BME280;8915;51.760;14.300;2024-03-06T10:55:15;101840.81;;;5.60;100.00
17593;BME280;8915;51.760;14.300;2024-03-06T10:57:43;101844.75;;;5.62;100.00
17593;BME280;8915;51.760;14.300;2024-03-06T11:00:12;101836.34;;;5.65;100.00
17593;BME280;8915;51.760;14.300;2024-03-06T11:02:46;101846.31;;;5.63;100.00
17593;BME280;8915;51.760;14.300;2024-03-06T11:05:14;101838.47;;;5.63;100.00
17593;BME280;8915;51.760;14.300;2024-03-06T11:07:41;101835.84;;;5.63;100.00
17593;BME280;8915;51.760;14.300;2024-03-06T11:10:09;101832.97;;;5.65;100.00
17593;BME280;8915;51.760;14.300;2024-03-06T11:12:42;101834.03;;;5.59;100.00
17593;BME280;8915;51.760;14.300;2024-03-06T11:15:13;101826.66;;;5.56;100.00
17593;BME280;8915;51.760;14.300;2024-03-06T11:17:40;101829.78;;;5.48;100.00
17593;BME280;8915;51.760;14.300;2024-03-06T11:20:16;101828.75;;;5.39;100.00
17593;BME280;8915;51.760;14.300;2024-03-06T11:23:04;101830.31;;;5.35;100.00
17593;BME280;8915;51.760;14.300;2024-03-06T11:26:04;101819.34;;;5.33;100.00
17593;BME280;8915;51.760;14.300;2024-03-06T11:28:31;101812.25;;;5.33;100.00
17593;BME280;8915;51.760;14.300;2024-03-06T11:31:01;101814.09;;;5.38;100.00
17593;BME280;8915;51.760;14.300;2024-03-06T11:33:37;101813.31;;;5.42;100.00
17593;BME280;8915;51.760;14.300;2024-03-06T11:36:19;101809.13;;;5.46;100.00
17593;BME280;8915;51.760;14.300;2024-03-06T11:38:53;101813.81;;;5.54;100.00
17593;BME280;8915;51.760;14.300;2024-03-06T11:41:21;101814.63;;;5.60;100.00
17593;BME280;8915;51.760;14.300;2024-03-06T11:43:48;101807.53;;;5.65;100.00
17593;BME280;8915;51.760;14.300;2024-03-06T11:46:16;101807.03;;;5.73;100.00
17593;BME280;8915;51.760;14.300;2024-03-06T11:48:51;101809.63;;;5.78;100.00
17593;BME280;8915;51.760;14.300;2024-03-06T11:51:18;101803.38;;;5.84;100.00
17593;BME280;8915;51.760;14.300;2024-03-06T11:53:49;101800.75;;;5.89;100.00
17593;BME280;8915;51.760;14.300;2024-03-06T11:56:17;101806.22;;;5.98;100.00
17593;BME280;8915;51.760;14.300;2024-03-06T11:58:45;101799.94;;;6.04;100.00
17593;BME280;8915;51.760;14.300;2024-03-06T12:01:11;101801.75;;;6.13;100.00
17593;BME280;8915;51.760;14.300;2024-03-06T12:03:39;101793.31;;;6.26;100.00
17593;BME280;8915;51.760;14.300;2024-03-06T12:06:06;101800.66;;;6.34;100.00
17593;BME280;8915;51.760;14.300;2024-03-06T12:08:33;101801.38;;;6.45;100.00
17593;BME280;8915;51.760;14.300;2024-03-06T12:11:02;101807.66;;;6.54;100.00
17593;BME280;8915;51.760;14.300;2024-03-06T12:13:29;101792.69;;;6.59;100.00
17593;BME280;8915;51.760;14.300;2024-03-06T12:15:56;101798.94;;;6.68;100.00
17593;BME280;8915;51.760;14.300;2024-03-06T12:18:23;101793.63;;;6.78;100.00
17593;BME280;8915;51.760;14.300;2024-03-06T12:20:51;101794.91;;;6.86;100.00
17593;BME280;8915;51.760;14.300;2024-03-06T12:23:20;101796.94;;;6.99;100.00
17593;BME280;8915;51.760;14.300;2024-03-06T12:25:48;101801.84;;;7.10;100.00
17593;BME280;8915;51.760;14.300;2024-03-06T12:28:14;101795.19;;;7.23;100.00
17593;BME280;8915;51.760;14.300;2024-03-06T12:30:42;101800.13;;;7.34;100.00
17593;BME280;8915;51.760;14.300;2024-03-06T12:33:10;101796.13;;;7.42;100.00
17593;BME280;8915;51.760;14.300;2024-03-06T12:35:40;101806.56;;;7.52;100.00
17593;BME280;8915;51.760;14.300;2024-03-06T12:38:12;101797.84;;;7.56;100.00
17593;BME280;8915;51.760;14.300;2024-03-06T12:40:39;101795.28;;;7.46;100.00
17593;BME280;8915;51.760;14.300;2024-03-06T12:43:06;101797.19;;;7.41;100.00
17593;BME280;8915;51.760;14.300;2024-03-06T12:45:32;101798.31;;;7.30;100.00
17593;BME280;8915;51.760;14.300;2024-03-06T12:47:59;101802.31;;;7.22;100.00